Time;durP1;ratioP1;P1;durP2;ratioP2;P2;SDS_P1;SDS_P2;PMS_P1;PMS_P2;Temp;Humidity;BMP_temperature;BMP_pressure;BME280_temperature;BME280_humidity;BME280_pressure;Samples;Min_cycle;Max_cycle;Signal;HPM_P1;HPM_P2
2023/05/10 00:01:01;;;;;;;14.65;8.08;;;;;;;6.45;53.24;100971.03;1814128;79;25550;-51
2023/05/10 00:03:27;;;;;;;15.88;9.08;;;;;;;6.43;53.51;100969.13;1814198;79;25954;-49
2023/05/10 00:05:54;;;;;;;14.58;9.35;;;;;;;6.40;53.75;100961.58;1814146;79;25592;-50
2023/05/10 00:08:20;;;;;;;21.95;9.40;;;;;;;6.40;53.76;100966.95;1814141;79;27301;-49
2023/05/10 00:10:46;;;;;;;13.32;8.48;;;;;;;6.37;53.93;100966.16;1814062;79;25586;-52
2023/05/10 00:13:13;;;;;;;18.95;9.35;;;;;;;6.33;53.64;100963.20;1814170;79;25516;-53
2023/05/10 00:15:40;;;;;;;11.68;8.23;;;;;;;6.32;53.73;100961.58;1814129;79;25949;-53
2023/05/10 00:18:06;;;;;;;17.87;7.62;;;;;;;6.30;53.76;100962.37;1814166;79;25536;-51
2023/05/10 00:20:32;;;;;;;13.22;8.15;;;;;;;6.29;53.82;100954.03;1814128;79;27392;-50
2023/05/10 00:22:58;;;;;;;13.68;8.10;;;;;;;6.29;53.86;100954.58;1814036;79;25830;-49
2023/05/10 00:25:24;;;;;;;14.95;8.38;;;;;;;6.26;53.97;100950.53;1814141;79;25365;-52
2023/05/10 00:27:52;;;;;;;14.00;8.53;;;;;;;6.24;53.76;100949.98;1814096;79;25382;-49
2023/05/10 00:30:18;;;;;;;12.47;7.30;;;;;;;6.24;53.98;100943.81;1814247;79;25544;-50
2023/05/10 00:32:45;;;;;;;13.32;7.50;;;;;;;6.23;53.81;100947.56;1814163;79;27317;-49
2023/05/10 00:35:12;;;;;;;12.63;6.92;;;;;;;6.23;53.72;100941.67;1814050;79;25608;-50
2023/05/10 00:37:38;;;;;;;11.68;7.28;;;;;;;6.23;53.90;100945.70;1814090;79;25589;-49
2023/05/10 00:40:06;;;;;;;11.90;7.35;;;;;;;6.25;53.75;100946.24;1814114;79;25940;-50
2023/05/10 00:42:32;;;;;;;10.90;7.17;;;;;;;6.25;53.61;100937.35;1814143;79;25368;-49
2023/05/10 00:44:58;;;;;;;8.38;5.97;;;;;;;6.27;53.39;100939.27;1814161;79;27998;-53
2023/05/10 00:47:25;;;;;;;13.75;6.22;;;;;;;6.26;53.43;100934.41;1813988;79;25365;-50
2023/05/10 00:49:52;;;;;;;10.50;6.87;;;;;;;6.28;53.28;100938.17;1814200;79;25747;-49
2023/05/10 00:52:18;;;;;;;10.75;6.92;;;;;;;6.27;53.29;100934.69;1814132;78;25378;-50
2023/05/10 00:54:45;;;;;;;12.98;6.85;;;;;;;6.27;53.40;100932.00;1802909;79;25411;-50
2023/05/10 00:57:11;;;;;;;13.10;6.53;;;;;;;6.27;53.20;100929.86;1803011;79;27292;-50
2023/05/10 00:59:37;;;;;;;10.38;6.37;;;;;;;6.27;53.08;100934.69;1813999;79;25692;-50
2023/05/10 01:02:04;;;;;;;13.43;6.47;;;;;;;6.28;53.02;100932.80;1811435;78;25604;-50
2023/05/10 01:04:30;;;;;;;12.93;6.55;;;;;;;6.29;52.87;100933.09;1808633;79;25413;-49
2023/05/10 01:06:57;;;;;;;9.23;6.03;;;;;;;6.29;52.93;100930.40;1808697;79;25515;-50
2023/05/10 01:09:26;;;;;;;19.82;8.60;;;;;;;6.27;52.78;100934.69;1808709;79;27243;-50
2023/05/10 01:11:53;;;;;;;11.20;6.08;;;;;;;6.29;52.80;100931.20;1808757;79;25527;-50
2023/05/10 01:14:20;;;;;;;13.60;6.00;;;;;;;6.30;52.65;100928.80;1808667;79;25392;-50
2023/05/10 01:16:49;;;;;;;8.78;6.28;;;;;;;6.30;52.85;100927.97;1808632;79;27518;-49
2023/05/10 01:19:28;;;;;;;9.35;6.25;;;;;;;6.29;52.77;100924.48;1808778;79;25558;-49
2023/05/10 01:22:12;;;;;;;10.63;6.30;;;;;;;6.28;52.64;100926.91;1808531;78;27377;-51
2023/05/10 01:25:04;;;;;;;22.42;7.92;;;;;;;6.28;52.66;100923.40;1808765;79;25559;-49
2023/05/10 01:27:59;;;;;;;11.35;6.67;;;;;;;6.27;52.55;100925.83;1808704;79;25591;-49
2023/05/10 01:31:01;;;;;;;10.82;6.60;;;;;;;6.25;52.56;100921.23;1808654;79;25373;-49
2023/05/10 01:33:42;;;;;;;11.18;6.55;;;;;;;6.25;52.51;100916.69;1808980;79;25532;-49
2023/05/10 01:36:31;;;;;;;14.20;6.60;;;;;;;6.23;52.46;100917.50;1798320;79;29724;-49
2023/05/10 01:39:26;;;;;;;11.48;6.75;;;;;;;6.22;52.46;100919.90;1808893;79;25454;-50
2023/05/10 01:42:06;;;;;;;9.23;6.20;;;;;;;6.19;52.61;100919.08;1808964;79;25648;-49
2023/05/10 01:45:06;;;;;;;9.80;6.83;;;;;;;6.17;52.71;100917.20;1808156;78;25405;-48
2023/05/10 01:47:46;;;;;;;11.00;6.72;;;;;;;6.16;52.57;100920.95;1755581;81;25594;-50
2023/05/10 01:50:20;;;;;;;10.18;5.95;;;;;;;6.13;52.72;100911.55;1755609;81;27393;-50
2023/05/10 01:52:55;;;;;;;12.37;7.00;;;;;;;6.11;52.59;100910.19;1755521;81;25640;-51
2023/05/10 01:55:27;;;;;;;7.97;5.70;;;;;;;6.08;52.80;100901.30;1755633;81;25444;-51
2023/05/10 01:58:04;;;;;;;12.18;6.47;;;;;;;6.06;52.89;100906.14;1755573;81;25481;-51
2023/05/10 02:00:32;;;;;;;11.60;6.67;;;;;;;6.03;52.96;100904.80;1755568;81;25436;-51
2023/05/10 02:03:03;;;;;;;12.35;6.30;;;;;;;6.02;52.80;100904.52;1752452;81;28079;-51
2023/05/10 02:05:32;;;;;;;8.93;6.00;;;;;;;5.98;52.78;100899.41;1749893;82;25704;-54
2023/05/10 02:08:01;;;;;;;13.18;5.92;;;;;;;5.94;53.18;100900.45;1750120;82;25530;-54
2023/05/10 02:10:29;;;;;;;10.40;6.33;;;;;;;5.89;53.01;100896.40;1749951;82;25613;-50
2023/05/10 02:12:59;;;;;;;7.80;5.83;;;;;;;5.88;52.98;100900.69;1750011;82;25575;-54
2023/05/10 02:15:27;;;;;;;10.03;5.80;;;;;;;5.86;53.13;100900.94;1750002;82;28225;-53
2023/05/10 02:17:56;;;;;;;11.48;5.75;;;;;;;5.84;53.49;100893.70;1749877;82;25645;-53
2023/05/10 02:20:24;;;;;;;9.83;6.30;;;;;;;5.84;53.06;100895.03;1750121;82;25688;-51
2023/05/10 02:22:54;;;;;;;11.10;5.97;;;;;;;5.85;53.30;100891.27;1752985;79;25645;-49
2023/05/10 02:25:23;;;;;;;10.00;5.83;;;;;;;5.85;52.95;100898.52;1811719;79;25602;-50
2023/05/10 02:27:53;;;;;;;12.07;6.80;;;;;;;5.82;52.91;100891.78;1811937;79;27404;-50
2023/05/10 02:30:20;;;;;;;11.35;5.95;;;;;;;5.82;53.11;100898.49;1811671;79;25389;-50
2023/05/10 02:32:49;;;;;;;10.45;6.58;;;;;;;5.80;53.17;100901.98;1811623;79;25404;-50
2023/05/10 02:35:17;;;;;;;12.13;5.67;;;;;;;5.77;53.21;100902.50;1811630;79;25436;-50
2023/05/10 02:37:45;;;;;;;9.63;5.60;;;;;;;5.76;53.31;100892.30;1811675;79;25373;-50
2023/05/10 02:40:13;;;;;;;9.00;6.40;;;;;;;5.75;53.31;100892.02;1811610;79;27919;-49
2023/05/10 02:42:42;;;;;;;11.88;5.85;;;;;;;5.73;53.32;100891.48;1811556;79;25637;-50
2023/05/10 02:45:12;;;;;;;13.32;6.17;;;;;;;5.72;53.36;100898.45;1811855;79;25428;-50
2023/05/10 02:47:39;;;;;;;10.35;6.05;;;;;;;5.69;53.35;100890.94;1811605;79;26885;-50
2023/05/10 02:50:07;;;;;;;12.93;5.80;;;;;;;5.68;53.45;100897.37;1811670;79;25621;-50
2023/05/10 02:52:41;;;;;;;9.78;5.97;;;;;;;5.67;53.62;100893.88;1811650;79;27289;-51
2023/05/10 02:55:12;;;;;;;10.65;5.50;;;;;;;5.65;53.54;100896.00;1810540;78;25698;-50
2023/05/10 02:57:44;;;;;;;9.45;5.85;;;;;;;5.65;53.60;100900.56;1811669;79;25396;-50
2023/05/10 03:00:11;;;;;;;9.65;5.42;;;;;;;5.63;53.58;100898.69;1811531;78;25614;-50
2023/05/10 03:02:37;;;;;;;9.33;5.15;;;;;;;5.62;53.78;100904.59;1795408;78;25595;-50
2023/05/10 03:05:05;;;;;;;10.28;5.92;;;;;;;5.62;53.64;100899.23;1775272;80;27328;-52
2023/05/10 03:07:33;;;;;;;11.90;5.78;;;;;;;5.62;53.91;100900.56;1775197;80;25556;-50
2023/05/10 03:10:00;;;;;;;8.90;5.80;;;;;;;5.61;54.00;100898.94;1775248;80;25452;-50
2023/05/10 03:13:06;;;;;;;12.13;5.60;;;;;;;5.61;53.81;100908.34;1775206;80;25559;-51
2023/05/10 03:16:12;;;;;;;11.05;5.85;;;;;;;5.61;54.06;100909.14;1775314;80;25366;-52
2023/05/10 03:18:53;;;;;;;9.63;5.40;;;;;;;5.59;54.27;100903.77;1775192;80;27370;-49
2023/05/10 03:21:23;;;;;;;7.33;5.17;;;;;;;5.58;54.24;100902.97;1774267;80;25586;-51
2023/05/10 03:24:00;;;;;;;10.50;6.62;;;;;;;5.57;54.34;100903.23;1775258;80;25452;-52
2023/05/10 08:59:39;;;;;;;4.53;2.08;;;;;;;20.21;23.88;100887.80;1813628;78;25351;-51
2023/05/10 09:02:09;;;;;;;4.05;2.42;;;;;;;20.30;24.40;100884.25;1814190;79;25366;-49
2023/05/10 09:04:35;;;;;;;5.65;2.40;;;;;;;20.23;24.45;100869.59;1814095;79;25877;-49
2023/05/10 09:07:01;;;;;;;9.95;2.35;;;;;;;20.53;24.68;100900.81;1814155;79;25412;-53
2023/05/10 09:09:29;;;;;;;3.77;1.98;;;;;;;20.75;24.27;100875.13;1814090;79;27287;-50
2023/05/10 09:11:55;;;;;;;7.03;3.00;;;;;;;20.89;23.96;100873.22;1814041;79;25604;-51
2023/05/10 09:14:24;;;;;;;6.17;2.10;;;;;;;21.05;24.03;100863.50;1814058;79;25361;-51
2023/05/10 09:16:51;;;;;;;3.05;2.10;;;;;;;21.03;23.37;100866.62;1803213;79;26016;-51
2023/05/10 09:19:17;;;;;;;4.95;1.90;;;;;;;21.25;24.08;100854.02;1814241;78;25390;-53
2023/05/10 09:21:43;;;;;;;5.08;2.77;;;;;;;21.38;23.42;100881.33;1814076;79;27370;-51
2023/05/10 09:24:09;;;;;;;6.40;2.20;;;;;;;21.36;23.00;100863.81;1814062;79;25563;-52
2023/05/10 09:26:48;;;;;;;4.17;2.10;;;;;;;21.52;23.59;100860.15;1814108;79;25559;-50
2023/05/10 09:29:15;;;;;;;5.57;2.20;;;;;;;21.55;22.41;100849.78;1814387;79;25384;-51
2023/05/10 09:31:48;;;;;;;5.25;2.22;;;;;;;21.59;22.57;100852.81;1814108;79;25598;-53
2023/05/10 09:34:25;;;;;;;2.70;2.37;;;;;;;21.82;23.58;100867.09;1814108;79;27317;-52
2023/05/10 09:36:56;;;;;;;6.30;2.20;;;;;;;22.01;22.64;100854.58;1809528;78;25404;-52
2023/05/10 09:39:37;;;;;;;2.65;2.02;;;;;;;22.15;23.14;100849.02;1814029;78;25565;-54
2023/05/10 09:42:07;;;;;;;4.85;2.20;;;;;;;22.77;23.65;100856.06;1813980;79;25392;-49
2023/05/10 09:44:34;;;;;;;4.05;2.47;;;;;;;23.12;22.21;100856.98;1813416;78;25580;-53
2023/05/10 09:47:02;;;;;;;5.72;2.40;;;;;;;23.10;20.94;100891.06;1814119;79;27414;-51
2023/05/10 09:49:29;;;;;;;7.15;2.08;;;;;;;22.91;21.16;100867.22;1813452;78;25623;-50
2023/05/10 09:52:07;;;;;;;3.37;2.45;;;;;;;22.97;22.14;100860.19;1814082;79;25619;-52
2023/05/10 09:54:34;;;;;;;7.03;2.30;;;;;;;23.18;21.50;100854.69;1814507;79;25936;-53
2023/05/10 09:57:01;;;;;;;5.78;2.35;;;;;;;23.38;21.40;100862.92;1814315;78;25428;-53
2023/05/10 09:59:28;;;;;;;7.03;2.30;;;;;;;23.33;20.77;100861.91;1814193;78;27290;-52
2023/05/10 10:02:00;;;;;;;2.37;1.80;;;;;;;23.10;21.17;100849.11;1814146;79;25560;-51
2023/05/10 10:04:27;;;;;;;8.73;2.92;;;;;;;22.85;21.47;100847.47;1814236;79;25366;-51
2023/05/10 10:07:04;;;;;;;6.85;2.10;;;;;;;23.04;21.86;100833.27;1814205;79;27507;-54
2023/05/10 10:09:31;;;;;;;8.85;2.27;;;;;;;23.27;21.95;100831.69;1814335;79;25563;-53
2023/05/10 10:11:58;;;;;;;4.92;2.52;;;;;;;23.53;21.35;100836.22;1814280;78;27947;-52
2023/05/10 10:14:25;;;;;;;4.80;2.83;;;;;;;23.52;21.33;100837.98;1803041;79;27184;-53
2023/05/10 10:16:53;;;;;;;5.92;2.27;;;;;;;23.55;20.52;100845.47;1814286;79;25377;-50
2023/05/10 10:19:21;;;;;;;7.37;2.40;;;;;;;23.30;20.81;100839.20;1814440;78;27584;-53
2023/05/10 10:21:50;;;;;;;2.70;2.00;;;;;;;23.29;20.34;100827.37;1814308;79;25409;-53
2023/05/10 10:24:17;;;;;;;7.03;2.52;;;;;;;22.95;20.49;100858.38;1814154;78;27344;-52
2023/05/10 10:26:45;;;;;;;7.58;2.62;;;;;;;22.77;20.64;100830.65;1814174;79;25424;-51
2023/05/10 10:29:34;;;;;;;6.90;2.58;;;;;;;22.73;21.33;100838.89;1814442;79;25365;-52
2023/05/10 10:32:24;;;;;;;6.35;2.50;;;;;;;22.74;21.51;100815.64;1814476;78;26350;-54
2023/05/10 10:34:51;;;;;;;3.80;2.10;;;;;;;22.79;21.00;100818.65;1814231;78;25417;-56
2023/05/10 10:37:17;;;;;;;65.28;60.83;;;;;;;22.92;22.02;100816.41;1814275;79;27366;-53
2023/05/10 10:39:44;;;;;;;7.95;2.45;;;;;;;23.32;21.69;100812.01;1814161;79;25634;-52
2023/05/10 10:42:10;;;;;;;5.05;2.83;;;;;;;23.71;21.03;100821.13;1814258;78;25575;-51
2023/05/10 10:44:38;;;;;;;6.87;2.70;;;;;;;23.55;19.79;100825.58;1814195;79;25386;-49
2023/05/10 10:47:22;;;;;;;7.65;2.92;;;;;;;23.40;20.68;100811.48;1814245;79;25543;-54
2023/05/10 10:50:01;;;;;;;8.75;2.62;;;;;;;23.46;20.58;100807.98;1813962;78;27312;-52
2023/05/10 10:52:33;;;;;;;7.28;2.15;;;;;;;23.45;20.05;100789.82;1814165;79;25441;-53
2023/05/10 10:55:22;;;;;;;3.20;2.22;;;;;;;23.25;20.25;100805.84;1814283;79;25363;-53
2023/05/10 10:57:51;;;;;;;5.92;2.50;;;;;;;22.87;20.28;100801.00;1814367;78;25475;-53
2023/05/10 11:00:28;;;;;;;6.92;2.58;;;;;;;22.91;20.58;100794.91;1806950;79;25444;-54
2023/05/10 11:03:09;;;;;;;10.72;3.55;;;;;;;22.70;20.35;100806.55;1805562;78;27344;-54
2023/05/10 11:05:47;;;;;;;3.83;2.27;;;;;;;22.59;20.94;100800.14;1806196;79;25522;-53
2023/05/10 11:08:30;;;;;;;3.47;2.43;;;;;;;22.74;21.07;100801.07;1808113;79;25635;-52
2023/05/10 11:11:03;;;;;;;9.53;2.40;;;;;;;23.02;21.71;100798.34;1808867;79;25378;-51
2023/05/10 11:13:43;;;;;;;5.53;2.47;;;;;;;23.48;20.78;100792.41;1808838;79;25550;-51
2023/05/10 11:16:25;;;;;;;8.45;2.70;;;;;;;23.35;20.83;100798.05;1808759;79;27324;-49
2023/05/10 11:19:02;;;;;;;2.75;2.00;;;;;;;23.46;19.82;100787.84;1806706;79;27309;-52
2023/05/10 11:21:33;;;;;;;8.18;3.62;;;;;;;23.28;20.76;100795.43;1808805;79;25606;-49
2023/05/10 11:24:05;;;;;;;7.65;3.40;;;;;;;23.30;20.33;100790.31;1808796;79;25598;-53
2023/05/10 11:26:35;;;;;;;4.95;2.92;;;;;;;23.27;20.41;100793.05;1808641;78;25607;-54
2023/05/10 11:29:04;;;;;;;10.20;2.60;;;;;;;23.37;20.60;100777.75;1808817;79;28016;-54
2023/05/10 11:31:30;;;;;;;4.92;2.62;;;;;;;23.60;20.92;100785.75;1808876;79;25504;-55
2023/05/10 11:34:01;;;;;;;13.18;9.48;;;;;;;23.67;20.37;100786.59;1809059;79;25394;-50
2023/05/10 11:36:36;;;;;;;11.53;10.38;;;;;;;23.67;20.60;100779.69;1808957;79;25852;-49
2023/05/10 11:39:03;;;;;;;3.77;2.37;;;;;;;23.93;20.59;100780.63;1808821;79;25476;-50
2023/05/10 11:41:31;;;;;;;5.45;2.50;;;;;;;23.95;19.97;100790.69;1808780;79;27309;-51
2023/05/10 11:43:59;;;;;;;3.35;2.00;;;;;;;23.78;20.14;100791.38;1808644;79;25747;-50
2023/05/10 11:46:28;;;;;;;4.92;3.08;;;;;;;23.92;20.52;100780.41;1808759;79;25393;-52
2023/05/10 11:49:03;;;;;;;4.08;2.40;;;;;;;24.21;20.49;100781.89;1808871;79;25872;-51
2023/05/10 11:51:34;;;;;;;3.87;2.12;;;;;;;24.09;19.77;100780.27;1808827;79;25372;-52
2023/05/10 11:54:00;;;;;;;5.97;2.40;;;;;;;24.09;20.38;100762.31;1808686;78;27824;-52
2023/05/10 11:56:26;;;;;;;4.28;2.27;;;;;;;24.19;20.52;100770.44;1808662;79;25606;-52
2023/05/10 11:58:56;;;;;;;4.92;1.92;;;;;;;24.53;20.91;100765.37;1808646;78;25611;-54
2023/05/10 12:01:25;;;;;;;5.65;2.20;;;;;;;24.74;19.46;100763.83;1808673;79;25591;-51
2023/05/10 12:03:55;;;;;;;5.78;2.45;;;;;;;24.32;19.51;100768.90;1808951;79;25182;-52
2023/05/10 12:06:22;;;;;;;9.38;2.25;;;;;;;23.90;19.83;100764.03;1808782;78;27374;-50
2023/05/10 12:08:53;;;;;;;5.50;2.15;;;;;;;23.79;20.14;100770.88;1808666;79;25598;-55
2023/05/10 12:11:17;;;;;;;7.25;2.65;;;;;;;24.01;20.72;100748.30;1808376;78;25651;-52
2023/05/10 12:13:47;;;;;;;4.58;2.15;;;;;;;24.15;20.06;100760.77;1808631;79;25406;-50
2023/05/10 12:16:17;;;;;;;5.67;2.22;;;;;;;23.96;20.17;100752.22;1808687;79;25590;-51
2023/05/10 12:18:45;;;;;;;3.37;2.08;;;;;;;23.71;20.27;100783.06;1807191;78;27935;-53
2023/05/10 12:21:13;;;;;;;7.42;2.55;;;;;;;23.31;20.16;100756.63;1808637;79;25552;-50
2023/05/10 12:23:40;;;;;;;6.95;2.45;;;;;;;23.08;20.65;100756.86;1808687;79;25411;-52
2023/05/10 12:26:09;;;;;;;5.80;2.33;;;;;;;23.19;21.09;100755.55;1808671;79;25880;-54
2023/05/10 12:28:35;;;;;;;6.15;2.33;;;;;;;23.33;20.98;100762.55;1808863;79;25365;-48
2023/05/10 12:31:03;;;;;;;7.20;2.30;;;;;;;23.22;20.90;100761.68;1808725;79;27375;-49
2023/05/10 12:33:42;;;;;;;5.22;2.20;;;;;;;22.93;20.71;100762.25;1808647;79;25607;-52
2023/05/10 12:36:07;;;;;;;3.52;2.05;;;;;;;23.01;21.42;100762.30;1807958;78;25540;-53
2023/05/10 12:38:37;;;;;;;4.75;2.30;;;;;;;23.15;21.01;100767.94;1808670;79;25462;-51
2023/05/10 12:41:07;;;;;;;5.30;2.40;;;;;;;23.16;21.07;100760.47;1808768;79;25607;-50
2023/05/10 12:43:35;;;;;;;4.53;2.40;;;;;;;23.19;20.96;100762.44;1808526;78;27303;-50
2023/05/10 12:46:17;;;;;;;6.92;2.72;;;;;;;23.20;21.48;100757.13;1808607;79;25422;-50
2023/05/10 12:48:47;;;;;;;4.70;2.60;;;;;;;23.25;21.43;100749.28;1808596;78;25414;-51
2023/05/10 12:51:15;;;;;;;7.87;2.50;;;;;;;23.35;21.29;100749.75;1808646;79;25524;-47
2023/05/10 12:53:41;;;;;;;3.90;2.30;;;;;;;23.22;21.32;100747.28;1808676;79;25406;-51
2023/05/10 12:56:07;;;;;;;7.05;2.37;;;;;;;23.23;21.23;100757.75;1808664;79;27298;-47
2023/05/10 12:58:35;;;;;;;6.17;2.40;;;;;;;23.13;21.44;100751.77;1808623;79;25425;-49
2023/05/10 13:01:02;;;;;;;4.60;2.37;;;;;;;23.16;21.82;100753.58;1810244;78;25410;-51
2023/05/10 13:03:29;;;;;;;6.22;3.10;;;;;;;23.10;21.54;100737.95;1814062;79;25554;-48
2023/05/10 13:05:55;;;;;;;8.20;2.83;;;;;;;22.91;21.86;100750.00;1814119;79;25335;-52
2023/05/10 13:08:22;;;;;;;5.40;2.70;;;;;;;22.76;21.67;100740.81;1814082;79;27456;-48
2023/05/10 13:10:49;;;;;;;4.05;2.52;;;;;;;22.68;22.37;100728.14;1814038;79;25582;-49
2023/05/10 13:13:16;;;;;;;7.50;2.70;;;;;;;22.67;22.10;100745.27;1814056;79;25386;-54
2023/05/10 13:15:42;;;;;;;4.55;2.50;;;;;;;22.41;21.91;100731.07;1814067;79;25415;-52
2023/05/10 13:18:09;;;;;;;4.87;2.92;;;;;;;22.32;22.14;100727.25;1814179;79;25368;-52
2023/05/10 13:20:35;;;;;;;5.17;4.67;;;;;;;22.23;22.10;100730.85;1814094;79;29415;-52
2023/05/10 13:23:02;;;;;;;6.03;4.67;;;;;;;22.12;22.19;100723.86;1813981;79;25572;-54
2023/05/10 13:25:29;;;;;;;9.15;4.55;;;;;;;22.19;22.20;100728.06;1814019;79;25535;-55
2023/05/10 13:27:56;;;;;;;11.00;2.87;;;;;;;22.21;22.28;100722.17;1813955;79;25621;-55
2023/05/10 13:30:23;;;;;;;3.02;2.25;;;;;;;22.26;22.55;100725.97;1814321;79;25557;-57
2023/05/10 13:32:50;;;;;;;6.15;2.17;;;;;;;22.49;22.42;100721.70;1814296;78;29400;-52
2023/05/10 13:35:25;;;;;;;7.42;2.33;;;;;;;22.71;22.06;100719.11;1814392;79;25610;-54
2023/05/10 13:37:56;;;;;;;7.58;2.27;;;;;;;22.65;21.77;100719.27;1814540;79;25704;-53
2023/05/10 13:40:25;;;;;;;;;;;;;;;22.79;21.88;100707.56;1817188;78;26526;-53
2023/05/10 13:42:53;;;;;;;4.65;2.30;;;;;;;22.88;21.58;100719.05;1814581;79;25610;-52
2023/05/10 13:45:23;;;;;;;4.03;2.10;;;;;;;22.71;21.22;100715.79;1814657;79;27982;-53
2023/05/10 13:47:52;;;;;;;6.65;2.37;;;;;;;22.51;21.57;100715.81;1814541;78;25741;-53
2023/05/10 13:50:21;;;;;;;6.37;2.27;;;;;;;22.36;20.94;100724.53;1814557;79;25650;-55
2023/05/10 13:52:49;;;;;;;4.08;2.45;;;;;;;21.91;21.17;100704.34;1813733;79;25745;-52
2023/05/10 14:08:53;;;;;;;3.45;2.27;;;;;;;21.06;21.78;100711.08;1799480;75;27269;-55
2023/05/10 14:11:20;;;;;;;2.67;2.30;;;;;;;20.75;21.86;100706.67;1744054;82;27958;-52
2023/05/10 14:13:47;;;;;;;4.25;2.10;;;;;;;20.58;22.19;100701.86;1743683;82;25732;-54
2023/05/10 14:16:14;;;;;;;4.25;2.25;;;;;;;20.47;22.31;100701.69;1743758;82;25483;-54
2023/05/10 14:18:41;;;;;;;9.23;2.40;;;;;;;20.45;22.59;100703.20;1743744;82;25503;-54
2023/05/10 14:21:08;;;;;;;4.25;2.20;;;;;;;20.48;23.00;100704.66;1743737;82;25577;-53
2023/05/10 14:23:36;;;;;;;4.15;2.40;;;;;;;20.55;22.83;100689.44;1743750;82;27903;-54
2023/05/10 14:26:05;;;;;;;4.90;2.30;;;;;;;20.57;22.92;100695.34;1743829;81;25556;-57
2023/05/10 14:28:34;;;;;;;5.60;2.65;;;;;;;20.59;22.64;100705.42;1743996;82;25630;-58
2023/05/10 14:54:48;;;;;;;7.17;2.45;;;;;;;19.66;23.37;100696.21;1815146;79;25433;-53
2023/05/10 14:57:16;;;;;;;3.67;2.10;;;;;;;19.52;23.25;100692.02;1805209;78;25850;-49
2023/05/10 14:59:43;;;;;;;4.25;2.83;;;;;;;19.39;23.39;100695.48;1775837;80;25467;-51
2023/05/10 15:02:11;;;;;;;5.22;1.85;;;;;;;19.26;23.42;100696.76;1803972;79;27318;-50
2023/05/10 15:04:39;;;;;;;7.33;2.80;;;;;;;19.07;23.74;100696.14;1775805;80;25574;-50
2023/05/10 15:07:06;;;;;;;4.03;2.25;;;;;;;19.08;24.10;100690.08;1804086;79;25553;-56
2023/05/10 15:09:34;;;;;;;7.30;3.02;;;;;;;19.10;24.19;100685.02;1775973;80;25455;-52
2023/05/10 15:12:02;;;;;;;6.47;2.45;;;;;;;19.14;24.37;100685.33;1804190;79;25362;-51
2023/05/10 15:14:30;;;;;;;7.08;2.33;;;;;;;19.21;24.44;100673.73;1776042;80;27318;-51
2023/05/10 15:16:57;;;;;;;5.53;2.15;;;;;;;19.17;24.41;100688.73;1804102;79;25448;-51
2023/05/10 15:19:24;;;;;;;6.47;2.42;;;;;;;19.05;24.06;100699.80;1775938;80;25398;-54
2023/05/10 15:21:50;;;;;;;4.10;2.00;;;;;;;18.91;24.01;100699.48;1804082;79;25763;-52
2023/05/10 15:24:17;;;;;;;3.92;2.40;;;;;;;18.77;24.22;100678.77;1775924;80;25430;-51
2023/05/10 15:26:43;;;;;;;3.95;2.50;;;;;;;18.73;24.25;100683.94;1804093;79;27098;-56
2023/05/10 15:29:10;;;;;;;5.75;2.50;;;;;;;18.66;24.28;100685.92;1775832;80;25624;-52
2023/05/10 15:31:36;;;;;;;7.60;2.40;;;;;;;18.53;24.15;100692.09;1804112;79;25445;-55
2023/05/10 15:34:03;;;;;;;5.05;2.12;;;;;;;18.48;24.44;100690.98;1775918;80;25611;-56
2023/05/10 15:36:29;;;;;;;3.00;2.20;;;;;;;18.41;24.38;100683.38;1804156;79;25385;-56
2023/05/10 15:38:56;;;;;;;12.13;9.45;;;;;;;18.34;24.36;100684.57;1775929;80;27906;-58
2023/05/10 15:41:23;;;;;;;5.17;2.50;;;;;;;18.28;24.41;100678.53;1804030;79;25428;-57
2023/05/10 15:43:50;;;;;;;6.45;2.55;;;;;;;18.26;24.75;100678.10;1775811;80;25383;-55
2023/05/10 15:46:16;;;;;;;7.25;2.70;;;;;;;18.27;24.78;100681.66;1804057;79;26130;-56
2023/05/10 15:48:42;;;;;;;3.92;2.00;;;;;;;18.22;24.67;100681.91;1775968;80;25430;-57
2023/05/10 15:51:09;;;;;;;2.58;2.00;;;;;;;18.18;24.55;100680.42;1804195;79;27343;-56
2023/05/10 15:53:35;;;;;;;3.95;2.17;;;;;;;18.08;24.59;100681.75;1744553;80;25887;-56
2023/05/10 15:56:02;;;;;;;5.37;2.80;;;;;;;17.98;24.55;100689.11;1733990;82;25403;-55
2023/05/10 15:58:29;;;;;;;6.70;2.60;;;;;;;17.85;24.49;100684.80;1733818;82;26201;-55
2023/05/10 16:00:56;;;;;;;9.95;2.42;;;;;;;17.73;24.60;100678.22;1749030;82;25372;-53
2023/05/10 16:03:22;;;;;;;4.00;2.08;;;;;;;17.68;24.84;100672.21;1809470;79;27308;-52
2023/05/10 16:05:49;;;;;;;3.98;2.15;;;;;;;17.62;24.93;100685.90;1809389;79;25424;-52
2023/05/10 16:08:15;;;;;;;5.75;2.27;;;;;;;17.53;24.97;100682.73;1809472;79;25389;-51
2023/05/10 16:10:42;;;;;;;5.00;2.12;;;;;;;17.50;25.21;100676.61;1809437;79;25602;-54
2023/05/10 16:13:09;;;;;;;7.75;2.20;;;;;;;17.48;25.05;100673.98;1809506;79;25420;-55
2023/05/10 16:15:36;;;;;;;3.12;2.08;;;;;;;17.42;24.97;100678.09;1809129;79;27809;-52
2023/05/10 16:18:02;;;;;;;5.12;2.10;;;;;;;17.38;25.09;100677.20;1809242;78;25804;-53
2023/05/10 16:20:29;;;;;;;3.33;1.80;;;;;;;17.34;25.26;100692.13;1809460;79;25448;-52
2023/05/10 16:22:55;;;;;;;4.58;2.40;;;;;;;17.30;25.21;100683.05;1808796;79;25769;-53
2023/05/10 16:25:21;;;;;;;3.15;1.72;;;;;;;17.23;25.27;100680.89;1809502;79;25365;-51
2023/05/10 16:27:48;;;;;;;4.10;1.92;;;;;;;17.13;25.15;100678.05;1809468;79;27549;-50
2023/05/10 16:30:14;;;;;;;7.47;2.20;;;;;;;17.06;25.16;100690.69;1809377;79;25421;-53
2023/05/10 16:32:41;;;;;;;5.37;2.25;;;;;;;16.98;25.14;100688.31;1809486;79;25436;-52
2023/05/10 16:35:08;;;;;;;3.52;2.15;;;;;;;16.93;25.47;100680.34;1809452;79;25776;-50
2023/05/10 16:37:35;;;;;;;4.05;1.90;;;;;;;16.87;25.40;100682.49;1809465;79;25361;-51
2023/05/10 16:40:01;;;;;;;5.85;2.22;;;;;;;16.81;25.35;100685.21;1809424;79;27305;-51
2023/05/10 16:42:29;;;;;;;3.98;2.05;;;;;;;16.73;25.50;100684.17;1809318;79;25537;-53
2023/05/10 16:44:55;;;;;;;5.12;2.20;;;;;;;16.67;25.61;100687.47;1809450;79;25351;-53
2023/05/10 16:47:25;;;;;;;2.80;2.52;;;;;;;16.59;25.73;100680.41;1809431;79;25585;-53
2023/05/10 16:49:50;;;;;;;5.03;2.35;;;;;;;16.54;25.97;100685.31;1809368;78;25374;-52
2023/05/10 16:52:17;;;;;;;3.60;2.40;;;;;;;16.51;26.02;100692.81;1809803;79;28121;-53
2023/05/10 16:54:43;;;;;;;3.65;1.90;;;;;;;16.46;26.06;100691.09;1814803;79;25384;-51
2023/05/10 16:57:10;;;;;;;5.15;2.30;;;;;;;16.41;26.17;100696.77;1814930;78;25391;-50
2023/05/10 16:59:37;;;;;;;2.83;2.50;;;;;;;16.37;26.29;100693.13;1814900;79;25339;-53
2023/05/10 17:02:03;;;;;;;3.80;2.30;;;;;;;16.32;26.26;100694.72;1781101;80;25450;-50
2023/05/10 17:04:30;;;;;;;3.12;2.00;;;;;;;16.25;26.08;100698.00;1814845;79;27309;-50
2023/05/10 17:06:56;;;;;;;3.25;2.42;;;;;;;16.20;26.13;100703.09;1781022;80;25367;-53
2023/05/10 17:09:23;;;;;;;2.83;2.22;;;;;;;16.14;26.24;100699.55;1814877;78;25407;-54
2023/05/10 17:11:49;;;;;;;4.00;2.22;;;;;;;16.10;26.25;100706.82;1781052;80;25616;-50
2023/05/10 17:14:16;;;;;;;3.40;2.15;;;;;;;16.04;26.13;100704.30;1814875;79;25427;-50
2023/05/10 17:16:42;;;;;;;3.83;2.30;;;;;;;15.99;26.21;100705.88;1781072;80;27952;-52
2023/05/10 17:19:09;;;;;;;2.60;1.90;;;;;;;15.94;26.30;100704.72;1814759;78;25909;-50
2023/05/10 17:21:35;;;;;;;4.45;2.30;;;;;;;15.89;26.33;100702.77;1781111;80;25465;-53
2023/05/10 17:24:02;;;;;;;6.35;2.40;;;;;;;15.84;26.35;100710.59;1814818;78;25840;-56
2023/05/10 17:26:28;;;;;;;8.75;2.60;;;;;;;15.79;26.41;100713.52;1781109;80;25369;-50
2023/05/10 17:28:55;;;;;;;7.85;5.03;;;;;;;15.74;26.67;100711.75;1814855;79;27957;-49
2023/05/10 17:31:21;;;;;;;5.90;2.37;;;;;;;15.68;26.68;100711.17;1781018;80;25779;-52
2023/05/10 17:33:48;;;;;;;4.42;2.55;;;;;;;15.63;26.84;100711.37;1814838;79;25311;-49
2023/05/10 17:36:14;;;;;;;4.05;1.98;;;;;;;15.59;26.91;100717.23;1781006;80;26305;-50
2023/05/10 17:38:42;;;;;;;4.33;2.35;;;;;;;15.54;27.23;100718.02;1814849;79;25409;-50
2023/05/10 17:41:08;;;;;;;8.73;2.72;;;;;;;15.49;27.28;100722.55;1781059;80;27479;-50
2023/05/10 17:43:35;;;;;;;7.85;3.22;;;;;;;15.46;27.27;100717.75;1814718;79;25595;-49
2023/05/10 17:46:02;;;;;;;4.78;3.15;;;;;;;15.42;27.50;100720.89;1781046;80;25410;-49
2023/05/10 17:48:28;;;;;;;17.87;3.30;;;;;;;15.41;27.57;100719.85;1814790;79;25624;-50